Time;durP1;ratioP1;P1;durP2;ratioP2;P2;SDS_P1;SDS_P2;PMS_P1;PMS_P2;Temp;Humidity;BMP_temperature;BMP_pressure;BME280_temperature;BME280_humidity;BME280_pressure;Samples;Min_cycle;Max_cycle;Signal;HPM_P1;HPM_P2
2021/05/09 00:02:00;;;;;;;12.15;5.17;;;;;;;4.41;79.45;99896.42;1861893;76;28155;-76
2021/05/09 00:04:36;;;;;;;10.30;4.17;;;;;;;4.42;77.85;99897.28;1813686;78;22904;-76
2021/05/09 00:07:13;;;;;;;9.13;4.90;;;;;;;4.32;77.71;99902.77;1793273;77;23284;-76
2021/05/09 00:09:49;;;;;;;10.20;4.75;;;;;;;4.26;79.24;99897.11;1828168;76;27972;-76
2021/05/09 00:12:25;;;;;;;9.33;4.40;;;;;;;4.32;78.18;99897.61;1812653;76;23433;-77
2021/05/09 00:15:01;;;;;;;10.08;5.00;;;;;;;4.26;77.89;99898.79;1795550;78;28008;-75
2021/05/09 00:17:38;;;;;;;13.70;5.62;;;;;;;4.31;77.50;99909.59;1808033;76;28459;-77
2021/05/09 00:20:15;;;;;;;8.85;4.30;;;;;;;4.39;77.73;99913.56;1833728;76;22929;-78
2021/05/09 00:22:50;;;;;;;9.93;4.90;;;;;;;4.35;79.40;99916.95;1796334;79;28197;-77
2021/05/09 00:25:26;;;;;;;10.10;4.85;;;;;;;4.43;79.85;99921.77;1836907;76;22845;-77
2021/05/09 00:28:07;;;;;;;13.22;4.90;;;;;;;4.39;79.06;99922.58;1822228;78;22968;-77
2021/05/09 00:30:42;;;;;;;8.18;4.00;;;;;;;4.37;80.03;99926.84;1874683;74;22936;-75
2021/05/09 00:33:18;;;;;;;11.40;4.78;;;;;;;4.33;79.76;99922.50;1796413;78;22925;-77
2021/05/09 00:35:54;;;;;;;22.20;6.05;;;;;;;4.30;79.74;99928.91;1838463;76;22251;-77
2021/05/09 00:38:30;;;;;;;18.25;7.65;;;;;;;4.27;79.29;99932.71;1865720;76;23255;-77
2021/05/09 00:41:06;;;;;;;19.92;8.35;;;;;;;4.20;79.12;99935.64;1797167;78;28620;-77
2021/05/09 00:43:41;;;;;;;14.55;6.67;;;;;;;4.17;79.10;99931.72;1852273;76;22884;-77
2021/05/09 00:46:17;;;;;;;14.30;6.15;;;;;;;4.08;79.75;99940.18;1800954;78;23339;-77
2021/05/09 00:48:53;;;;;;;11.75;4.70;;;;;;;3.98;81.06;99940.46;1812063;79;22951;-76
2021/05/09 00:51:29;;;;;;;12.82;4.78;;;;;;;3.89;81.98;99934.31;1805204;77;22933;-76
2021/05/09 00:54:06;;;;;;;9.85;4.37;;;;;;;3.82;80.08;99953.94;1812730;78;23109;-76
2021/05/09 00:56:41;;;;;;;10.67;5.50;;;;;;;3.73;80.71;99948.20;1819320;77;33009;-76
2021/05/09 00:59:18;;;;;;;12.63;5.78;;;;;;;3.73;80.49;99947.34;1793424;78;28174;-77
2021/05/09 01:01:55;;;;;;;10.63;4.62;;;;;;;3.76;80.72;99951.23;1860274;76;22202;-76
2021/05/09 01:04:32;;;;;;;10.48;5.00;;;;;;;3.69;80.89;99952.86;1794810;78;28097;-76
2021/05/09 01:07:08;;;;;;;12.75;4.58;;;;;;;3.75;79.92;99950.81;1797809;76;28078;-76
2021/05/09 01:09:44;;;;;;;6.97;3.60;;;;;;;3.79;79.87;99948.30;1885390;75;22859;-77
2021/05/09 01:12:20;;;;;;;9.93;4.78;;;;;;;3.75;80.85;99946.52;1733345;79;28684;-77
2021/05/09 01:14:57;;;;;;;10.27;4.73;;;;;;;3.83;80.04;99949.22;1863144;74;27650;-77
2021/05/09 01:17:33;;;;;;;13.28;4.22;;;;;;;3.93;79.72;99950.23;1818303;78;22899;-77
2021/05/09 01:20:18;;;;;;;7.85;3.87;;;;;;;3.85;80.56;99947.53;1842382;76;22847;-76
2021/05/09 01:22:54;;;;;;;10.05;4.12;;;;;;;3.82;80.21;99937.61;1811996;79;22910;-77
2021/05/09 01:25:31;;;;;;;8.45;4.35;;;;;;;3.80;80.37;99938.91;1863359;76;38349;-77
2021/05/09 01:28:06;;;;;;;11.70;4.08;;;;;;;3.89;79.88;99940.73;1811414;79;22964;-76
2021/05/09 01:30:42;;;;;;;11.10;4.25;;;;;;;3.84;80.45;99943.64;1882538;74;23347;-76
2021/05/09 01:33:18;;;;;;;10.15;4.17;;;;;;;3.78;80.84;99937.58;1824520;76;23197;-77
2021/05/09 01:35:53;;;;;;;10.25;4.90;;;;;;;3.73;80.21;99943.06;1845357;76;28000;-77
2021/05/09 01:38:30;;;;;;;10.93;5.28;;;;;;;3.77;79.45;99940.98;1767442;79;28751;-77
2021/05/09 01:41:06;;;;;;;11.70;5.40;;;;;;;3.78;79.17;99935.44;1804054;76;28469;-75
2021/05/09 01:43:42;;;;;;;11.90;4.83;;;;;;;3.76;79.48;99935.41;1878952;75;27967;-76
2021/05/09 01:46:24;;;;;;;7.85;4.15;;;;;;;3.77;79.87;99943.55;1817697;78;22915;-76
2021/05/09 01:49:00;;;;;;;10.78;4.62;;;;;;;3.66;80.14;99938.68;1832640;76;28517;-75
2021/05/09 01:51:36;;;;;;;12.65;4.72;;;;;;;3.72;80.75;99941.34;1800195;78;39283;-77
2021/05/09 01:54:13;;;;;;;9.05;4.20;;;;;;;3.76;80.11;99943.13;1797066;77;28186;-76
2021/05/09 01:56:49;;;;;;;8.98;4.25;;;;;;;3.80;79.71;99945.33;1828249;76;28068;-77
2021/05/09 01:59:25;;;;;;;8.70;4.08;;;;;;;3.89;79.72;99945.88;1847293;76;28499;-76
2021/05/09 02:02:03;;;;;;;9.98;4.12;;;;;;;3.94;79.80;99942.98;1860397;76;28953;-76
2021/05/09 02:04:43;;;;;;;8.78;4.08;;;;;;;4.00;79.42;99950.78;1814754;78;22886;-76
2021/05/09 02:07:21;;;;;;;9.33;4.47;;;;;;;3.91;79.76;99942.91;1866946;76;22826;-77
2021/05/09 02:09:57;;;;;;;8.73;4.00;;;;;;;3.85;80.07;99943.68;1811825;78;22899;-77
2021/05/09 02:12:33;;;;;;;9.50;4.28;;;;;;;3.77;80.39;99947.41;1825981;76;22930;-76
2021/05/09 02:15:14;;;;;;;7.87;4.10;;;;;;;3.72;80.75;99950.34;1817968;78;22896;-77
2021/05/09 02:17:50;;;;;;;12.20;4.22;;;;;;;3.64;80.94;99953.22;1862740;76;22885;-77
2021/05/09 02:20:26;;;;;;;10.93;5.30;;;;;;;3.58;80.99;99955.27;1824634;77;28073;-76
2021/05/09 02:23:03;;;;;;;11.83;5.00;;;;;;;3.58;79.99;99953.98;1813123;76;28066;-76
2021/05/09 02:25:39;;;;;;;9.75;5.20;;;;;;;3.55;80.04;99958.20;1795412;78;28580;-78
2021/05/09 02:28:16;;;;;;;8.10;4.40;;;;;;;3.45;79.31;99957.17;1818915;77;28140;-75
2021/05/09 02:30:52;;;;;;;10.25;4.40;;;;;;;3.51;79.68;99961.55;1814667;76;28062;-76
2021/05/09 02:33:29;;;;;;;9.90;4.78;;;;;;;3.51;80.14;99967.55;1818608;77;29221;-76
2021/05/09 02:36:05;;;;;;;9.43;4.47;;;;;;;3.52;81.32;99968.41;1807036;78;22930;-76
2021/05/09 02:38:40;;;;;;;11.12;4.15;;;;;;;3.44;81.48;99974.70;1882090;76;22932;-77
2021/05/09 02:41:16;;;;;;;12.47;5.20;;;;;;;3.33;81.87;99975.80;1802156;78;28072;-77
2021/05/09 02:43:52;;;;;;;13.18;4.83;;;;;;;3.39;82.53;99979.77;1769045;79;22935;-77
2021/05/09 02:46:28;;;;;;;14.85;4.80;;;;;;;3.34;84.00;99982.70;1862018;75;22896;-78
2021/05/09 02:49:04;;;;;;;11.68;5.05;;;;;;;3.32;83.82;99986.94;1830664;76;27938;-77
2021/05/09 02:51:40;;;;;;;13.50;5.55;;;;;;;3.38;82.73;99987.45;1869115;76;27942;-76
2021/05/09 02:54:16;;;;;;;8.50;4.67;;;;;;;3.48;81.87;99992.34;1889453;74;22890;-77
2021/05/09 02:56:52;;;;;;;12.33;5.53;;;;;;;3.34;81.81;99994.27;1794702;78;28174;-76
2021/05/09 02:59:28;;;;;;;13.38;5.87;;;;;;;3.35;82.80;99993.83;1787100;78;28088;-76
2021/05/09 03:02:05;;;;;;;9.95;4.83;;;;;;;3.34;81.80;99990.41;1779392;79;28029;-77
2021/05/09 03:04:41;;;;;;;10.82;4.97;;;;;;;3.26;82.71;99997.08;1814994;76;28062;-76
2021/05/09 03:07:18;;;;;;;8.10;4.10;;;;;;;3.25;82.07;99997.08;1817269;78;22908;-76
2021/05/09 03:09:55;;;;;;;9.10;4.85;;;;;;;3.10;81.92;100007.91;1820176;76;27961;-76
2021/05/09 03:12:31;;;;;;;10.55;4.45;;;;;;;3.08;81.37;100005.30;1791923;79;22961;-77
2021/05/09 03:15:14;;;;;;;7.95;4.22;;;;;;;2.98;82.55;100013.27;1762485;79;23456;-77
2021/05/09 03:17:50;;;;;;;14.07;5.08;;;;;;;2.93;82.38;100017.44;1796093;79;28150;-77
2021/05/09 03:20:26;;;;;;;10.00;4.95;;;;;;;3.00;81.88;100020.98;1796424;78;27970;-77
2021/05/09 03:23:02;;;;;;;7.87;4.37;;;;;;;3.08;81.94;100017.28;1829514;76;22954;-78
2021/05/09 03:25:38;;;;;;;14.43;5.10;;;;;;;3.07;82.99;100015.14;1864998;75;29368;-76
2021/05/09 03:28:15;;;;;;;10.50;5.25;;;;;;;3.21;82.19;100017.98;1810529;78;28652;-77
2021/05/09 03:30:51;;;;;;;10.93;4.80;;;;;;;3.31;82.21;100016.03;1818212;77;28077;-78
2021/05/09 03:33:27;;;;;;;10.58;4.95;;;;;;;3.41;82.45;100013.22;1796056;79;28120;-76
2021/05/09 03:36:03;;;;;;;10.10;5.17;;;;;;;3.52;82.05;100013.41;1834210;76;22871;-78
2021/05/09 03:38:40;;;;;;;9.93;4.33;;;;;;;3.50;82.57;100026.66;1809443;77;22253;-76
2021/05/09 03:41:22;;;;;;;8.35;3.85;;;;;;;3.48;82.68;100025.76;1815868;76;22903;-77
2021/05/09 03:43:57;;;;;;;9.85;5.28;;;;;;;3.44;82.10;100024.83;1801577;78;28012;-76
2021/05/09 03:46:33;;;;;;;9.40;4.83;;;;;;;3.44;82.99;100030.40;1799163;78;22919;-77
2021/05/09 03:49:09;;;;;;;10.68;5.20;;;;;;;3.36;82.86;100031.14;1796120;79;28146;-77
2021/05/09 03:51:45;;;;;;;9.65;5.05;;;;;;;3.41;82.05;100033.79;1807571;78;22915;-76
2021/05/09 03:54:27;;;;;;;9.35;4.92;;;;;;;3.31;81.82;100032.74;1814555;77;22934;-75
2021/05/09 03:57:03;;;;;;;14.15;5.25;;;;;;;3.25;82.88;100041.63;1801701;79;23794;-79
2021/05/09 03:59:40;;;;;;;11.85;6.03;;;;;;;3.19;84.75;100040.22;1816784;77;28053;-77
2021/05/09 04:02:16;;;;;;;11.88;6.12;;;;;;;3.28;82.79;100048.13;1829131;76;38424;-79
2021/05/09 04:04:51;;;;;;;12.05;5.10;;;;;;;3.34;82.95;100053.38;1832776;76;22841;-77
2021/05/09 04:07:28;;;;;;;12.28;6.10;;;;;;;3.35;82.41;100055.52;1786068;79;28622;-76
2021/05/09 04:10:05;;;;;;;12.00;5.65;;;;;;;3.47;82.24;100049.75;1805496;78;38906;-76
2021/05/09 04:12:41;;;;;;;10.80;5.65;;;;;;;3.58;82.13;100045.66;1851309;75;27996;-75
2021/05/09 04:15:17;;;;;;;11.60;5.22;;;;;;;3.73;82.48;100044.66;1801633;78;23330;-77
2021/05/09 04:17:53;;;;;;;9.73;4.97;;;;;;;3.78;82.65;100045.61;1811717;79;22966;-75
2021/05/09 04:20:28;;;;;;;12.10;5.42;;;;;;;3.82;82.60;100048.22;1831226;76;22872;-76
2021/05/09 04:23:18;;;;;;;12.13;5.80;;;;;;;3.88;82.81;100057.33;1829050;78;22877;-76
2021/05/09 04:26:00;;;;;;;11.30;5.53;;;;;;;3.94;83.41;100063.89;1811125;78;22908;-77
2021/05/09 04:28:36;;;;;;;10.40;5.97;;;;;;;3.91;83.47;100066.41;1814423;77;38502;-77
2021/05/09 04:31:11;;;;;;;13.00;6.47;;;;;;;4.02;83.17;100069.14;1823070;76;22921;-77
2021/05/09 04:33:46;;;;;;;10.40;5.78;;;;;;;4.05;83.10;100068.78;1805511;79;23409;-76
2021/05/09 04:36:21;;;;;;;10.15;5.62;;;;;;;4.03;83.08;100069.61;1805436;77;22936;-77
2021/05/09 04:39:04;;;;;;;11.78;5.60;;;;;;;4.08;82.51;100062.41;1811731;79;22963;-77
2021/05/09 04:41:39;;;;;;;10.00;5.40;;;;;;;4.08;82.14;100066.28;1817241;76;24135;-76
2021/05/09 04:44:15;;;;;;;9.80;6.05;;;;;;;4.11;82.45;100070.60;1831150;76;23739;-77
2021/05/09 04:46:50;;;;;;;11.25;6.30;;;;;;;4.17;83.08;100072.84;1889709;75;22895;-76
2021/05/09 04:49:27;;;;;;;11.90;6.20;;;;;;;4.22;82.77;100075.52;1813332;78;22943;-77
2021/05/09 04:52:03;;;;;;;12.45;7.22;;;;;;;4.30;81.61;100079.50;1817881;77;28209;-77
2021/05/09 04:54:39;;;;;;;13.40;7.65;;;;;;;4.41;81.52;100078.38;1800029;77;28533;-76
2021/05/09 04:57:15;;;;;;;12.18;5.80;;;;;;;4.49;81.01;100066.05;1749864;79;24110;-77
2021/05/09 04:59:51;;;;;;;12.90;5.92;;;;;;;4.54;81.15;100072.14;1817919;78;23763;-76
2021/05/09 05:02:27;;;;;;;11.60;6.37;;;;;;;4.62;81.27;100086.43;1876505;76;23970;-77
2021/05/09 05:05:04;;;;;;;13.45;6.53;;;;;;;4.72;81.25;100074.55;1792141;78;28121;-77
2021/05/09 05:07:39;;;;;;;13.45;5.70;;;;;;;4.92;80.89;100076.12;1880494;76;23045;-77
2021/05/09 05:10:21;;;;;;;11.73;6.55;;;;;;;5.06;80.72;100083.60;1798999;78;22945;-77
2021/05/09 05:12:56;;;;;;;14.33;7.53;;;;;;;5.18;79.69;100076.02;1827043;76;22916;-77
2021/05/09 05:15:30;;;;;;;14.60;7.55;;;;;;;5.26;79.57;100073.54;1813417;77;22940;-78
2021/05/09 05:18:06;;;;;;;13.72;7.55;;;;;;;5.36;79.54;100075.38;1811131;79;23406;-78
2021/05/09 05:20:43;;;;;;;12.58;6.85;;;;;;;5.48;79.69;100075.94;1833853;76;22226;-76
2021/05/09 05:23:19;;;;;;;14.68;8.50;;;;;;;5.58;79.06;100071.31;1826528;77;28125;-78
2021/05/09 05:25:55;;;;;;;14.60;8.58;;;;;;;5.77;78.49;100074.97;1798847;78;28083;-78
2021/05/09 05:28:31;;;;;;;16.10;8.58;;;;;;;5.88;78.18;100074.20;1795663;79;28170;-76
2021/05/09 05:31:12;;;;;;;13.53;7.72;;;;;;;6.07;77.48;100081.31;1809956;79;22914;-76
2021/05/09 05:33:48;;;;;;;13.50;7.28;;;;;;;6.09;77.16;100077.02;1799624;79;23435;-77
2021/05/09 05:36:24;;;;;;;13.75;7.08;;;;;;;6.14;76.42;100071.89;1803118;78;23434;-77
2021/05/09 05:38:59;;;;;;;11.95;7.12;;;;;;;6.17;76.27;100080.53;1872562;75;22929;-77
2021/05/09 05:41:35;;;;;;;14.75;6.90;;;;;;;6.21;76.07;100084.41;1820441;76;22914;-78
2021/05/09 05:44:11;;;;;;;11.60;7.28;;;;;;;6.29;76.81;100077.63;1802019;79;22936;-79
2021/05/09 05:46:48;;;;;;;16.40;9.50;;;;;;;6.41;77.62;100088.05;1802271;76;28006;-76
2021/05/09 05:49:23;;;;;;;15.08;7.62;;;;;;;6.55;77.25;100090.73;1831146;76;23462;-78
2021/05/09 05:51:58;;;;;;;13.35;7.08;;;;;;;6.65;77.48;100086.50;1889123;75;22868;-78
2021/05/09 05:54:33;;;;;;;12.33;6.75;;;;;;;6.76;77.31;100091.28;1813394;78;22936;-77
2021/05/09 05:57:09;;;;;;;15.43;7.25;;;;;;;6.89;77.31;100093.10;1814591;78;22972;-76
2021/05/09 05:59:45;;;;;;;12.35;7.45;;;;;;;7.02;77.55;100101.77;1802337;78;22885;-78
2021/05/09 06:02:21;;;;;;;13.43;6.60;;;;;;;7.17;77.56;100103.16;1809548;76;22878;-76
2021/05/09 06:04:57;;;;;;;15.75;7.12;;;;;;;7.29;77.36;100101.49;1812918;77;28180;-79
2021/05/09 06:07:33;;;;;;;13.75;6.72;;;;;;;7.47;76.88;100110.61;1805542;79;22910;-80
2021/05/09 06:10:11;;;;;;;13.70;6.67;;;;;;;7.55;75.62;100110.20;1818835;78;23414;-80
2021/05/09 06:12:46;;;;;;;13.43;6.65;;;;;;;7.63;75.35;100103.77;1818925;78;23263;-78
2021/05/09 06:15:29;;;;;;;13.13;6.80;;;;;;;7.73;75.23;100109.40;1818501;78;22924;-79
2021/05/09 06:18:11;;;;;;;13.25;6.17;;;;;;;7.84;75.28;100108.15;1925552;73;22809;-77
2021/05/09 06:20:48;;;;;;;15.18;7.70;;;;;;;7.92;75.04;100106.88;1795235;77;28038;-79
2021/05/09 06:23:27;;;;;;;14.63;6.67;;;;;;;8.11;74.71;100109.90;1821539;78;24130;-77
2021/05/09 06:26:01;;;;;;;14.65;7.10;;;;;;;8.21;74.55;100104.30;1832778;76;23194;-77
2021/05/09 06:28:36;;;;;;;11.43;6.17;;;;;;;8.30;73.54;100099.58;1819231;76;22916;-80
2021/05/09 06:31:11;;;;;;;11.05;6.65;;;;;;;8.40;73.94;100100.00;1827811;76;23255;-78
2021/05/09 06:33:47;;;;;;;11.97;7.00;;;;;;;8.50;73.41;100095.72;1811343;79;22933;-78
2021/05/09 06:36:23;;;;;;;22.13;13.95;;;;;;;8.61;72.70;100088.77;1815719;76;27953;-77
2021/05/09 06:38:58;;;;;;;17.12;10.82;;;;;;;8.75;72.13;100082.27;1811262;79;22951;-78
2021/05/09 06:41:35;;;;;;;21.57;13.95;;;;;;;8.83;71.91;100081.81;1802563;78;28036;-77
2021/05/09 06:44:12;;;;;;;18.23;11.93;;;;;;;9.01;71.61;100083.94;1823621;76;23389;-78
2021/05/09 06:46:47;;;;;;;18.25;10.15;;;;;;;9.10;71.63;100087.81;1787993;78;28175;-79
2021/05/09 06:49:29;;;;;;;13.83;9.38;;;;;;;9.28;70.90;100088.19;1881046;74;22848;-83
2021/05/09 06:52:05;;;;;;;14.47;8.50;;;;;;;9.36;70.83;100084.67;1872842;76;28005;-79
2021/05/09 06:54:41;;;;;;;11.95;8.20;;;;;;;9.50;67.10;100085.91;1814153;77;28159;-79
2021/05/09 06:57:18;;;;;;;10.63;6.35;;;;;;;9.66;68.26;100085.39;1868548;76;28130;-79
2021/05/09 06:59:53;;;;;;;10.80;5.97;;;;;;;9.80;66.20;100082.72;1828254;76;22924;-78
2021/05/09 07:02:30;;;;;;;11.28;5.50;;;;;;;9.73;63.68;100091.00;1789274;79;28123;-79
2021/05/09 07:05:13;;;;;;;10.00;5.22;;;;;;;9.88;65.76;100084.83;1752640;79;22904;-81
2021/05/09 07:07:55;;;;;;;11.30;5.20;;;;;;;9.94;64.91;100082.63;1871252;76;23420;-79
2021/05/09 07:10:34;;;;;;;11.83;4.62;;;;;;;10.04;64.88;100077.80;1818121;76;22917;-79
2021/05/09 07:13:10;;;;;;;9.23;4.87;;;;;;;10.14;65.00;100076.84;1811844;79;24205;-78
2021/05/09 07:15:47;;;;;;;7.50;4.70;;;;;;;10.23;63.37;100076.38;1812147;78;24130;-80
2021/05/09 07:18:24;;;;;;;8.25;3.80;;;;;;;10.30;63.94;100081.97;1804396;78;22925;-77
2021/05/09 07:21:02;;;;;;;10.03;5.57;;;;;;;10.37;62.38;100082.80;1820853;76;33094;-77
2021/05/09 07:23:47;;;;;;;9.50;4.87;;;;;;;10.44;63.13;100081.41;1820922;78;24113;-79
2021/05/09 07:26:24;;;;;;;6.65;4.08;;;;;;;10.50;60.98;100071.39;1800329;78;22904;-76
2021/05/09 07:28:58;;;;;;;6.92;3.75;;;;;;;10.48;61.61;100061.00;1794162;79;23157;-82
2021/05/09 07:31:40;;;;;;;6.80;4.10;;;;;;;10.64;61.28;100073.86;1787482;78;28514;-81
2021/05/09 07:34:14;;;;;;;3.70;2.30;;;;;;;10.80;61.92;100066.77;1812015;79;23283;-80
2021/05/09 07:36:50;;;;;;;4.70;2.67;;;;;;;10.90;56.76;100071.88;1885953;76;22874;-78
2021/05/09 07:39:25;;;;;;;7.40;2.85;;;;;;;10.99;58.41;100073.95;1817127;78;22910;-79
2021/05/09 07:42:01;;;;;;;5.10;3.10;;;;;;;11.11;59.52;100076.41;1810030;78;22905;-81
2021/05/09 07:44:38;;;;;;;7.80;3.50;;;;;;;11.18;55.86;100073.28;1801480;76;28148;-79
2021/05/09 07:47:13;;;;;;;5.70;3.25;;;;;;;11.35;56.24;100071.34;1811052;79;22956;-79
2021/05/09 07:49:55;;;;;;;5.15;2.55;;;;;;;11.48;56.80;100069.42;1802721;77;22920;-78
2021/05/09 07:52:31;;;;;;;4.62;2.55;;;;;;;11.58;54.90;100068.45;1891522;75;22848;-77
2021/05/09 07:55:09;;;;;;;6.30;2.83;;;;;;;11.70;56.69;100066.12;1813283;78;23726;-79
2021/05/09 07:57:45;;;;;;;5.35;2.98;;;;;;;11.88;57.00;100061.08;1810126;79;23382;-79
2021/05/09 08:00:21;;;;;;;7.17;3.60;;;;;;;12.05;57.80;100060.39;1786390;78;27965;-81
2021/05/09 08:02:57;;;;;;;6.05;3.67;;;;;;;12.22;57.14;100059.28;1870301;76;28487;-78
2021/05/09 08:05:33;;;;;;;5.62;3.42;;;;;;;12.44;55.75;100062.38;1784976;78;28041;-77
2021/05/09 08:08:09;;;;;;;5.05;3.10;;;;;;;12.58;54.30;100055.17;1811776;79;22927;-77
2021/05/09 08:10:45;;;;;;;6.45;3.30;;;;;;;12.65;53.69;100049.39;1808498;77;28576;-77
2021/05/09 08:13:21;;;;;;;5.87;3.27;;;;;;;12.81;54.72;100055.18;1811605;79;22937;-77
2021/05/09 08:15:57;;;;;;;7.42;3.70;;;;;;;12.86;54.79;100051.59;1805540;78;28017;-79
2021/05/09 08:18:33;;;;;;;6.15;3.70;;;;;;;13.02;54.53;100051.31;1800824;76;28127;-79
2021/05/09 08:21:09;;;;;;;6.22;3.60;;;;;;;13.18;53.39;100047.95;1808492;78;22902;-79
2021/05/09 08:23:46;;;;;;;6.33;3.75;;;;;;;13.26;55.17;100042.11;1801621;78;28102;-79
2021/05/09 08:26:21;;;;;;;5.80;3.30;;;;;;;13.39;54.02;100040.13;1807832;78;22943;-80
2021/05/09 08:28:56;;;;;;;6.05;3.45;;;;;;;13.42;54.80;100036.15;1795004;79;22944;-80
2021/05/09 08:31:31;;;;;;;6.60;3.65;;;;;;;13.51;54.73;100038.58;1807364;78;22948;-77
2021/05/09 08:34:06;;;;;;;5.83;3.62;;;;;;;13.57;55.29;100037.55;1801099;79;23102;-79
2021/05/09 08:36:43;;;;;;;6.17;3.33;;;;;;;13.60;54.71;100034.43;1810525;78;38360;-75
2021/05/09 08:39:18;;;;;;;5.00;3.25;;;;;;;13.78;53.68;100033.15;1797930;79;28140;-77
2021/05/09 08:41:54;;;;;;;7.35;3.27;;;;;;;13.86;53.47;100034.28;1793516;78;22916;-81
2021/05/09 08:44:33;;;;;;;7.95;3.33;;;;;;;13.97;54.05;100043.19;1827741;76;22902;-78
2021/05/09 08:47:09;;;;;;;6.22;3.50;;;;;;;14.04;53.85;100042.12;1799251;78;22945;-77
2021/05/09 08:49:45;;;;;;;6.03;2.83;;;;;;;14.10;52.99;100035.44;1813842;78;23314;-76
2021/05/09 08:52:21;;;;;;;6.67;3.55;;;;;;;14.17;52.11;100034.86;1816880;78;23439;-79
2021/05/09 08:54:58;;;;;;;6.55;3.12;;;;;;;14.24;52.85;100024.18;1844002;77;22682;-81
2021/05/09 08:57:35;;;;;;;4.40;2.37;;;;;;;14.38;51.87;100034.30;1810878;79;22904;-78
2021/05/09 09:00:14;;;;;;;4.97;2.35;;;;;;;14.38;51.58;100024.29;1810926;78;22965;-78
2021/05/09 09:02:51;;;;;;;5.15;2.65;;;;;;;14.42;48.44;100036.39;1811397;79;22950;-80
2021/05/09 09:05:38;;;;;;;7.92;2.33;;;;;;;14.51;49.16;100034.85;1885891;74;23382;-80
2021/05/09 09:08:15;;;;;;;4.40;2.27;;;;;;;14.68;51.87;100025.27;1824741;76;22853;-79
2021/05/09 09:10:53;;;;;;;4.17;2.22;;;;;;;14.86;51.24;100030.44;1785496;77;29187;-79
2021/05/09 09:13:32;;;;;;;5.25;2.30;;;;;;;15.06;45.74;100017.66;1816934;78;22910;-79
2021/05/09 09:16:07;;;;;;;5.70;2.40;;;;;;;15.10;44.35;100021.06;1811471;78;22901;-79
2021/05/09 09:18:44;;;;;;;5.47;3.05;;;;;;;15.17;46.33;100016.49;1833436;76;28863;-77
2021/05/09 09:21:31;;;;;;;6.15;2.40;;;;;;;15.30;45.85;100025.26;1811942;78;22903;-79
2021/05/09 09:24:12;;;;;;;3.02;1.75;;;;;;;15.39;44.79;100019.33;1861328;76;22886;-77
2021/05/09 09:26:50;;;;;;;4.15;2.58;;;;;;;15.43;43.36;100019.64;1815560;78;22905;-82
2021/05/09 09:29:30;;;;;;;4.45;2.08;;;;;;;15.50;45.00;100014.17;1800842;76;22907;-79
2021/05/09 09:34:50;;;;;;;5.92;2.37;;;;;;;15.47;38.15;100014.71;1812980;77;23420;-76
2021/05/09 09:37:34;;;;;;;5.22;2.02;;;;;;;15.51;40.40;100016.33;1817195;78;22906;-77
2021/05/09 09:40:14;;;;;;;4.25;2.02;;;;;;;15.53;40.46;100008.43;1760777;79;22964;-78
2021/05/09 09:42:50;;;;;;;4.40;1.95;;;;;;;15.54;39.32;100001.84;1802270;79;22969;-79
2021/05/09 09:45:29;;;;;;;3.92;1.80;;;;;;;15.55;40.59;100001.38;1791639;78;22897;-78
2021/05/09 09:48:06;;;;;;;4.67;2.00;;;;;;;15.63;41.92;99995.44;1882207;76;22889;-81
2021/05/09 09:50:51;;;;;;;7.47;2.37;;;;;;;15.81;39.43;100001.89;1799545;78;39068;-79
2021/05/09 09:53:38;;;;;;;5.60;2.02;;;;;;;16.02;39.94;100002.52;1823329;76;23430;-80
2021/05/09 09:56:22;;;;;;;5.12;3.17;;;;;;;16.12;39.51;100000.91;1810196;78;22914;-78
2021/05/09 09:59:04;;;;;;;3.25;1.65;;;;;;;16.17;38.75;100000.28;1789183;79;23574;-78
2021/05/09 10:01:40;;;;;;;4.78;1.80;;;;;;;16.22;39.55;100001.00;1799208;79;23383;-78
2021/05/09 10:04:16;;;;;;;5.45;1.92;;;;;;;16.25;36.50;99992.57;1805360;79;23463;-77
2021/05/09 10:06:51;;;;;;;6.75;3.20;;;;;;;16.33;39.83;99995.37;1752144;79;22985;-78
2021/05/09 10:09:27;;;;;;;15.45;8.90;;;;;;;16.34;37.26;99991.38;1859868;76;32246;-79
2021/05/09 10:12:03;;;;;;;26.97;15.78;;;;;;;16.48;38.30;99993.53;1790173;78;23089;-78
2021/05/09 10:14:41;;;;;;;6.58;3.77;;;;;;;16.53;37.26;99992.89;1811770;77;22941;-80
2021/05/09 10:17:17;;;;;;;8.00;4.55;;;;;;;16.62;39.23;99992.58;1888561;76;23456;-78
2021/05/09 10:19:54;;;;;;;16.70;8.60;;;;;;;16.72;38.85;99985.70;1838276;77;21742;-78
2021/05/09 10:22:34;;;;;;;6.40;3.12;;;;;;;16.80;35.96;99986.27;1856083;76;28019;-77
2021/05/09 10:25:35;;;;;;;3.83;2.05;;;;;;;16.79;33.90;99984.11;1764302;79;22926;-79
2021/05/09 10:28:11;;;;;;;4.03;2.00;;;;;;;16.92;37.81;99971.87;1823238;77;27982;-79
2021/05/09 10:30:51;;;;;;;5.83;3.00;;;;;;;17.07;37.84;99966.05;1828931;76;22198;-78
2021/05/09 10:33:42;;;;;;;4.35;1.92;;;;;;;17.24;37.16;99970.17;1817253;76;23254;-77
2021/05/09 10:36:27;;;;;;;4.37;2.33;;;;;;;17.27;31.95;99954.77;1807053;78;22900;-78
2021/05/09 10:39:18;;;;;;;13.72;7.12;;;;;;;17.40;37.12;99952.03;1812165;79;22898;-78
2021/05/09 10:41:59;;;;;;;12.78;6.78;;;;;;;17.69;37.78;99956.14;1793590;78;22932;-78
2021/05/09 10:44:49;;;;;;;19.15;11.03;;;;;;;17.89;37.30;99953.19;1892286;76;23072;-78
2021/05/09 10:47:31;;;;;;;7.37;4.10;;;;;;;18.14;34.70;99946.88;1817700;78;22913;-77
2021/05/09 10:50:24;;;;;;;8.93;3.62;;;;;;;18.29;36.45;99944.91;1792743;78;22915;-78
2021/05/09 10:53:06;;;;;;;5.50;2.20;;;;;;;18.46;36.75;99938.45;1829572;78;22901;-78
2021/05/09 10:55:45;;;;;;;4.22;1.82;;;;;;;18.44;34.94;99940.73;1798107;78;23351;-78
2021/05/09 10:58:44;;;;;;;3.08;1.90;;;;;;;18.44;36.29;99936.34;1812504;79;22915;-79
2021/05/09 11:01:25;;;;;;;8.63;4.22;;;;;;;18.46;35.22;99933.19;1817610;78;22883;-78
2021/05/09 11:04:08;;;;;;;5.47;2.20;;;;;;;18.56;35.41;99935.39;1837161;76;22904;-78
2021/05/09 11:06:45;;;;;;;18.45;9.93;;;;;;;18.67;34.51;99919.97;1829502;76;22921;-78
2021/05/09 11:09:29;;;;;;;4.40;2.65;;;;;;;18.94;32.08;99931.06;1837624;76;22905;-77
2021/05/09 11:12:06;;;;;;;6.22;3.42;;;;;;;19.06;33.38;99928.33;1812855;78;22946;-78
2021/05/09 11:14:41;;;;;;;9.80;5.45;;;;;;;19.18;33.08;99939.60;1812554;79;22967;-78
2021/05/09 11:17:18;;;;;;;4.45;1.98;;;;;;;19.36;31.38;99929.97;1806219;76;28075;-78
2021/05/09 11:19:55;;;;;;;3.05;1.60;;;;;;;19.40;22.65;99930.67;1819405;76;28043;-77
2021/05/09 11:22:30;;;;;;;4.90;2.30;;;;;;;19.45;24.02;99922.06;1807002;76;38336;-78
2021/05/09 11:25:06;;;;;;;3.35;1.50;;;;;;;19.48;23.13;99925.88;1816978;77;23032;-78
2021/05/09 11:27:46;;;;;;;3.50;1.77;;;;;;;19.50;26.04;99913.47;1773539;79;28038;-77
2021/05/09 11:30:35;;;;;;;2.92;1.77;;;;;;;19.59;21.69;99905.09;1815306;78;22915;-78
2021/05/09 11:33:11;;;;;;;5.92;2.15;;;;;;;19.69;25.19;99900.22;1791841;79;23424;-80
2021/05/09 11:35:47;;;;;;;3.80;1.70;;;;;;;19.95;28.26;99894.97;1816736;78;23441;-78
2021/05/09 11:38:23;;;;;;;2.75;1.32;;;;;;;20.24;28.01;99897.43;1815006;78;22902;-77
2021/05/09 11:41:00;;;;;;;3.30;1.40;;;;;;;20.42;25.53;99887.69;1817225;78;23316;-78
2021/05/09 11:43:36;;;;;;;2.60;1.20;;;;;;;20.39;20.00;99885.66;1854160;76;22926;-79
2021/05/09 11:46:17;;;;;;;3.67;1.30;;;;;;;20.66;22.93;99878.94;1805270;78;38188;-79
2021/05/09 11:49:15;;;;;;;2.10;1.20;;;;;;;20.89;20.29;99869.36;1791478;79;22907;-78
2021/05/09 11:52:03;;;;;;;2.40;1.40;;;;;;;20.98;19.84;99876.78;1797979;78;38275;-79
2021/05/09 11:54:47;;;;;;;2.58;1.22;;;;;;;21.26;22.83;99871.63;1869852;75;23056;-78
2021/05/09 11:57:26;;;;;;;4.45;1.27;;;;;;;21.47;23.05;99872.72;1812039;79;22899;-77
2021/05/09 12:00:13;;;;;;;2.40;1.20;;;;;;;21.63;22.66;99861.62;1816051;76;22851;-79
2021/05/09 12:02:50;;;;;;;2.22;1.32;;;;;;;21.81;22.61;99864.97;1817664;78;22925;-78
2021/05/09 12:05:27;;;;;;;3.87;1.40;;;;;;;21.97;23.38;99862.26;1796562;78;28049;-78
2021/05/09 12:08:04;;;;;;;2.55;1.30;;;;;;;22.26;20.86;99859.66;1819282;76;38242;-79
2021/05/09 12:10:42;;;;;;;2.30;1.35;;;;;;;22.38;17.76;99852.30;1811869;78;22954;-79
2021/05/09 12:13:18;;;;;;;2.80;1.30;;;;;;;22.51;19.74;99843.10;1866611;76;22889;-78
2021/05/09 12:15:54;;;;;;;2.25;1.12;;;;;;;22.55;20.37;99836.66;1829792;77;28034;-78
2021/05/09 12:18:29;;;;;;;2.70;1.30;;;;;;;22.84;17.58;99833.97;1818244;76;22924;-79
2021/05/09 12:21:08;;;;;;;2.08;1.17;;;;;;;23.25;17.71;99827.78;1817226;77;22938;-78